Airfield :
LOGIN :

Register | Disclaimer

   EN    FR    IT 

 










Legend :    VFR   Marginal VFR   IFR   Intensive IFR   Very Intensive IFR
Visi :
Ceiling :
>= 8 km
>= 3000ft
5 to 8 km
1000 to 3000 ft
1500m to 5 km
500 to 1000 ft
800 to 1500m
200 to 500 ft
< 800m
< 200 ft
Symbols :   Thunderstorms  Fog  Heavy snow  Heavy precipitations  Wind > 20 kt
SIGMETs :     Misc.  Thunderstorms  Icing  Turbulence  Mountain Waves  Volcanic Ashes






- Airport Elevation : 1535 ft
- IATA code : OUD


GMFO - Ouja Angads

CURRENT METAR :
  • 290600Z 36004KT 330V040 6000 FEW002 17/16 Q1018 NOSIG

EXPIRED METARs :
  • 290530Z 35004KT 300V040 4000 BR SCT002 17/16 Q1018 NOSIG
  • 290500Z 34006KT 1500 BR SCT002 17/15 Q1018 NOSIG
  • 290430Z 33004KT 310V010 9999 NCD 17/15 Q1017 NOSIG
  • 290400Z 30004KT 260V330 9999 NCD 17/14 Q1017 NOSIG
  • 290330Z 29003KT 230V340 9000 NSC 17/14 Q1017 NOSIG
  • 290300Z VRB02KT 9000 NSC 17/15 Q1017 NOSIG
  • 290230Z VRB01KT CAVOK 18/15 Q1017 NOSIG
  • 290200Z 35004KT CAVOK 18/15 Q1018 NOSIG
  • 290130Z 33005KT CAVOK 19/15 Q1018 NOSIG

TAF TAF GMFO
Valid from the 29 at 06:00 until the 30 at 12:00 UTC


290500Z 2906/3012 34005KT 1500 BR SCT002
TEMPO 2912/2918 36014KT 9999 FEW030



MET'MAP, your aeronautical weather chart ! - Copyright ORBIFLY December 2007 - Disclaimer

ORBIFLY MET'MAP TEAM :

Programming & Development : Alexandra Zaïnal
Original concept : Baudouin d'Aumeries
Technical & hardware support : Manuel Goepfert
Assistance : Marc-Olivier Méhu




SOURCES & CREDITS :

   NOAA